Sokoto, Nigeria
Current Conditions -  °F | °C
As of 12:00 PM on Wednesday 26 Nov 2014 (Local Time) from DRRN Reporting Station
Sand / Dust Storm Sand / Dust Storm  
Wind Chill: 90°   Ceiling: Unl
Heat Index: 90°   Visibility: 2.1mi
Dew Point: 30°   Wind: 12mph
Humidity: 12%   Direction: 140°SE
Pressure: 29.88"   Gusts: NA
Location:  13.07°N, 5.24°E
Report Text: DRRN 261100Z 14010KT 3500 DU NSC 32/M01 Q1012 NOSIG
Loading
Personal Weather Stations






























Interactive Weather Map New forecast layout! Learn more

10-Day Weather Forecast

Advertisements
Track Severe Weather on mobile